Time;durP1;ratioP1;P1;durP2;ratioP2;P2;SDS_P1;SDS_P2;PMS_P1;PMS_P2;Temp;Humidity;BMP_temperature;BMP_pressure;BME280_temperature;BME280_humidity;BME280_pressure;Samples;Min_cycle;Max_cycle;Signal;HPM_P1;HPM_P2
2022/04/18 00:02:09;;;;;;;20.15;12.55;;;;;;;;;;5021325;28;20132;-65
2022/04/18 00:04:35;;;;;;;20.20;12.73;;;;;;;;;;5041836;28;20124;-66
2022/04/18 00:07:02;;;;;;;24.42;12.95;;;;;;;;;;5041666;28;20060;-65
2022/04/18 00:09:33;;;;;;;20.75;11.98;;;;;;;;;;5035048;28;20042;-65
2022/04/18 00:11:59;;;;;;;22.15;12.93;;;;;;;;;;5036412;28;20072;-66
2022/04/18 00:14:25;;;;;;;20.48;12.50;;;;;;;;;;5038504;28;20103;-65
2022/04/18 00:16:51;;;;;;;18.73;12.52;;;;;;;;;;5049462;28;20396;-65
2022/04/18 00:19:17;;;;;;;21.80;12.18;;;;;;;;;;5045359;28;20045;-65
2022/04/18 00:21:43;;;;;;;21.10;12.02;;;;;;;;;;5044587;28;20037;-65
2022/04/18 00:24:10;;;;;;;18.92;11.70;;;;;;;;;;5043749;28;20464;-65
2022/04/18 00:26:39;;;;;;;20.02;12.82;;;;;;;;;;5053238;28;20143;-65
2022/04/18 00:29:05;;;;;;;20.05;12.25;;;;;;;;;;5034876;28;20056;-65
2022/04/18 00:31:31;;;;;;;16.45;11.23;;;;;;;;;;5051562;28;20056;-65
2022/04/18 00:33:57;;;;;;;20.40;12.18;;;;;;;;;;5043937;28;20064;-65
2022/04/18 00:36:23;;;;;;;18.90;11.63;;;;;;;;;;5034282;28;20045;-65
2022/04/18 00:38:49;;;;;;;19.77;11.82;;;;;;;;;;5037569;28;20045;-65
2022/04/18 00:41:15;;;;;;;18.77;11.45;;;;;;;;;;5051464;28;20060;-65
2022/04/18 00:43:45;;;;;;;16.67;11.10;;;;;;;;;;5052017;28;20131;-65
2022/04/18 00:46:12;;;;;;;17.92;11.88;;;;;;;;;;5051718;28;20177;-65
2022/04/18 00:48:38;;;;;;;19.58;12.10;;;;;;;;;;5039907;28;20049;-65
2022/04/18 00:51:05;;;;;;;17.95;11.20;;;;;;;;;;5040489;28;20052;-65
2022/04/18 00:53:31;;;;;;;19.27;11.75;;;;;;;;;;5017226;28;20053;-65
2022/04/18 00:55:57;;;;;;;16.15;11.38;;;;;;;;;;5048134;28;20052;-65
2022/04/18 00:58:23;;;;;;;18.42;11.15;;;;;;;;;;5048837;28;20396;-64
2022/04/18 01:00:49;;;;;;;18.48;11.52;;;;;;;;;;5043365;28;20045;-64
2022/04/18 01:03:15;;;;;;;19.02;11.38;;;;;;;;;;5052286;28;20456;-65
2022/04/18 01:05:42;;;;;;;18.42;12.15;;;;;;;;;;5033541;28;20063;-65
2022/04/18 01:08:08;;;;;;;20.63;12.30;;;;;;;;;;5044152;28;20040;-64
2022/04/18 01:10:34;;;;;;;18.55;11.55;;;;;;;;;;5042983;28;20476;-64
2022/04/18 01:13:00;;;;;;;17.45;11.55;;;;;;;;;;5055764;28;20132;-65
2022/04/18 01:15:26;;;;;;;15.90;10.80;;;;;;;;;;5036662;28;20047;-64
2022/04/18 01:17:52;;;;;;;18.67;12.20;;;;;;;;;;5047848;28;20041;-63
2022/04/18 01:20:18;;;;;;;18.98;11.70;;;;;;;;;;5049248;28;20068;-65
2022/04/18 01:22:44;;;;;;;22.15;11.98;;;;;;;;;;5043162;28;20041;-65
2022/04/18 01:30:40;;;;;;;26.40;12.35;;;;;;;;;;5052498;28;20117;-65
2022/04/18 01:33:06;;;;;;;23.95;12.27;;;;;;;;;;5038425;28;20148;-64
2022/04/18 01:35:31;;;;;;;21.25;12.20;;;;;;;;;;5023754;28;20042;-65
2022/04/18 01:37:57;;;;;;;23.13;12.55;;;;;;;;;;5032582;28;20495;-64
2022/04/18 01:40:23;;;;;;;25.55;11.57;;;;;;;;;;5049193;28;20132;-64
2022/04/18 01:42:49;;;;;;;19.98;12.38;;;;;;;;;;5055416;28;20049;-65
2022/04/18 01:45:15;;;;;;;19.38;11.70;;;;;;;;;;5056112;28;20504;-64
2022/04/18 01:47:41;;;;;;;21.80;11.80;;;;;;;;;;5037642;28;20045;-65
2022/04/18 01:50:07;;;;;;;22.83;12.30;;;;;;;;;;5018088;28;20064;-65
2022/04/18 01:52:33;;;;;;;18.92;11.50;;;;;;;;;;5050547;28;20052;-64
2022/04/18 01:54:59;;;;;;;21.08;12.00;;;;;;;;;;5043305;28;20042;-64
2022/04/18 01:57:25;;;;;;;19.70;11.52;;;;;;;;;;5044917;28;20128;-64
2022/04/18 01:59:51;;;;;;;15.57;11.15;;;;;;;;;;5047101;28;20049;-65
2022/04/18 02:02:17;;;;;;;18.40;11.00;;;;;;;;;;5025035;28;20208;-65
2022/04/18 02:04:43;;;;;;;17.42;10.70;;;;;;;;;;5038514;28;20045;-65
2022/04/18 02:07:10;;;;;;;19.00;12.13;;;;;;;;;;5037534;28;20131;-64
2022/04/18 02:09:37;;;;;;;19.60;11.38;;;;;;;;;;5046416;28;20049;-64
2022/04/18 02:12:04;;;;;;;19.00;11.00;;;;;;;;;;5049890;28;20072;-64
2022/04/18 02:14:30;;;;;;;19.83;12.30;;;;;;;;;;5043665;28;20044;-65
2022/04/18 02:16:56;;;;;;;20.20;10.93;;;;;;;;;;5045484;28;20042;-65
2022/04/18 02:19:22;;;;;;;16.88;11.18;;;;;;;;;;5044202;28;20049;-65
2022/04/18 02:21:48;;;;;;;18.00;10.95;;;;;;;;;;5044902;28;20073;-64
2022/04/18 02:24:15;;;;;;;19.30;10.88;;;;;;;;;;5038672;28;20049;-65
2022/04/18 02:26:41;;;;;;;16.83;11.50;;;;;;;;;;5018775;28;20121;-64
2022/04/18 02:29:07;;;;;;;19.67;11.65;;;;;;;;;;5024051;28;20088;-64
2022/04/18 02:32:47;;;;;;;19.48;11.40;;;;;;;;;;5054624;28;20111;-64
2022/04/18 02:34:18;;;;;;;17.70;11.43;;;;;;;;;;5035032;28;20061;-65
2022/04/18 02:36:45;;;;;;;16.80;10.68;;;;;;;;;;5037349;28;20167;-64
2022/04/18 02:39:11;;;;;;;18.15;11.35;;;;;;;;;;5047275;28;20491;-65
2022/04/18 02:41:37;;;;;;;17.38;11.32;;;;;;;;;;5033003;28;20480;-65
2022/04/18 02:44:03;;;;;;;14.85;10.45;;;;;;;;;;5033915;28;20045;-65
2022/04/18 02:46:29;;;;;;;17.17;11.35;;;;;;;;;;5034726;28;20476;-65
2022/04/18 02:48:55;;;;;;;19.52;11.88;;;;;;;;;;5034971;28;20064;-64
2022/04/18 02:51:27;;;;;;;20.75;11.32;;;;;;;;;;5039267;28;20507;-64
2022/04/18 02:53:53;;;;;;;22.23;11.98;;;;;;;;;;5046097;28;20049;-65
2022/04/18 02:56:19;;;;;;;23.17;11.93;;;;;;;;;;5053811;28;20502;-65
2022/04/18 02:58:45;;;;;;;17.75;11.32;;;;;;;;;;5045339;28;20117;-64
2022/04/18 03:01:12;;;;;;;16.88;11.57;;;;;;;;;;5030962;28;20049;-65
2022/04/18 03:03:38;;;;;;;18.23;10.82;;;;;;;;;;5026148;28;20518;-65
2022/04/18 03:06:05;;;;;;;18.45;11.68;;;;;;;;;;5027376;28;20049;-65
2022/04/18 03:08:31;;;;;;;19.00;11.98;;;;;;;;;;5029738;28;20049;-66
2022/04/18 03:11:03;;;;;;;18.85;11.25;;;;;;;;;;5034617;28;20049;-65
2022/04/18 03:13:30;;;;;;;20.30;11.70;;;;;;;;;;5042598;28;20085;-64
2022/04/18 03:15:56;;;;;;;21.27;12.20;;;;;;;;;;5043478;28;20469;-66
2022/04/18 03:18:22;;;;;;;21.20;11.82;;;;;;;;;;5045213;28;20037;-65
2022/04/18 03:20:48;;;;;;;18.42;11.38;;;;;;;;;;5019673;28;20549;-66
2022/04/18 03:23:14;;;;;;;17.67;11.55;;;;;;;;;;5042335;28;20091;-65
2022/04/18 03:25:40;;;;;;;19.35;11.23;;;;;;;;;;5034789;28;20038;-65
2022/04/18 03:28:06;;;;;;;17.92;11.93;;;;;;;;;;5049960;28;20504;-65
2022/04/18 03:30:32;;;;;;;16.40;11.07;;;;;;;;;;5052498;28;20542;-66
2022/04/18 03:32:58;;;;;;;19.15;11.00;;;;;;;;;;5035651;28;20046;-65
2022/04/18 03:35:24;;;;;;;19.80;11.23;;;;;;;;;;5053759;28;20071;-65
2022/04/18 03:40:35;;;;;;;20.15;11.35;;;;;;;;;;5029263;28;20481;-65
2022/04/18 03:43:01;;;;;;;19.50;11.25;;;;;;;;;;5033572;28;20135;-66
2022/04/18 03:45:27;;;;;;;18.27;11.23;;;;;;;;;;5038268;28;20440;-66
2022/04/18 03:47:53;;;;;;;18.83;11.20;;;;;;;;;;5040979;28;20049;-65
2022/04/18 03:50:19;;;;;;;18.40;11.30;;;;;;;;;;5034319;28;20047;-65
2022/04/18 03:52:45;;;;;;;18.75;10.38;;;;;;;;;;5032283;28;20052;-66
2022/04/18 03:55:11;;;;;;;17.60;10.90;;;;;;;;;;5032202;28;20123;-66
2022/04/18 03:57:37;;;;;;;20.33;11.20;;;;;;;;;;5032893;28;20107;-65
2022/04/18 04:00:04;;;;;;;19.27;11.80;;;;;;;;;;5039503;28;20081;-67
2022/04/18 04:02:30;;;;;;;18.90;10.63;;;;;;;;;;5044640;28;20492;-66
2022/04/18 04:04:56;;;;;;;17.98;11.32;;;;;;;;;;5056290;28;20143;-67
2022/04/18 04:07:23;;;;;;;22.75;11.43;;;;;;;;;;5042873;28;20069;-66
2022/04/18 04:09:49;;;;;;;29.15;11.98;;;;;;;;;;5052328;28;20147;-66
2022/04/18 04:12:14;;;;;;;30.80;12.65;;;;;;;;;;5055826;28;20076;-66
2022/04/18 04:14:40;;;;;;;31.85;13.30;;;;;;;;;;5057741;28;20150;-65
2022/04/18 04:17:06;;;;;;;25.33;12.48;;;;;;;;;;5046863;28;20049;-66
2022/04/18 04:19:33;;;;;;;16.90;10.90;;;;;;;;;;5030074;28;20045;-64
2022/04/18 04:21:59;;;;;;;35.50;14.10;;;;;;;;;;5024312;28;20091;-65
2022/04/18 04:24:25;;;;;;;30.13;12.63;;;;;;;;;;5037027;28;20107;-66
2022/04/18 04:26:51;;;;;;;33.05;13.07;;;;;;;;;;5035790;28;20053;-68
2022/04/18 04:29:18;;;;;;;22.42;11.93;;;;;;;;;;5040887;28;20067;-67
2022/04/18 04:31:44;;;;;;;28.80;12.73;;;;;;;;;;5036989;28;20123;-65
2022/04/18 04:34:12;;;;;;;28.52;12.55;;;;;;;;;;5052509;28;20424;-66
2022/04/18 04:36:39;;;;;;;32.17;12.57;;;;;;;;;;5048729;28;20515;-66
2022/04/18 04:39:05;;;;;;;24.15;11.75;;;;;;;;;;5040556;28;20053;-66
2022/04/18 04:41:31;;;;;;;32.03;12.80;;;;;;;;;;5040143;28;20446;-66
2022/04/18 04:43:57;;;;;;;36.88;14.82;;;;;;;;;;5027081;28;20052;-65
2022/04/18 04:46:23;;;;;;;85.80;22.42;;;;;;;;;;5021389;28;20485;-65
2022/04/18 04:48:49;;;;;;;27.58;12.73;;;;;;;;;;5021643;28;20046;-66
2022/04/18 04:51:15;;;;;;;43.17;15.80;;;;;;;;;;5038059;28;20045;-65
2022/04/18 04:53:41;;;;;;;24.85;11.80;;;;;;;;;;5045366;28;20094;-66
2022/04/18 04:56:07;;;;;;;27.95;12.23;;;;;;;;;;5036408;28;20045;-68
2022/04/18 04:58:33;;;;;;;32.75;13.05;;;;;;;;;;5050246;28;20056;-65
2022/04/18 05:00:59;;;;;;;49.85;16.77;;;;;;;;;;5045613;28;20053;-65
2022/04/18 05:03:26;;;;;;;31.80;13.63;;;;;;;;;;5047571;28;20041;-65
2022/04/18 05:05:52;;;;;;;33.42;13.00;;;;;;;;;;5053760;28;20049;-64
2022/04/18 05:08:18;;;;;;;50.72;16.00;;;;;;;;;;5036457;28;20084;-65
2022/04/18 05:10:44;;;;;;;36.15;14.40;;;;;;;;;;5038063;28;20041;-64
2022/04/18 05:13:10;;;;;;;23.02;12.13;;;;;;;;;;5047160;28;20152;-64
2022/04/18 05:15:37;;;;;;;41.90;14.85;;;;;;;;;;5037862;28;20046;-66
2022/04/18 05:18:03;;;;;;;29.10;12.82;;;;;;;;;;5042988;28;20041;-65
2022/04/18 05:20:29;;;;;;;68.68;18.70;;;;;;;;;;5051979;28;20040;-65
2022/04/18 05:22:55;;;;;;;56.85;18.70;;;;;;;;;;5042158;28;20494;-65
2022/04/18 05:25:22;;;;;;;26.13;13.63;;;;;;;;;;5042828;28;20056;-65
2022/04/18 05:27:48;;;;;;;56.65;18.92;;;;;;;;;;5051303;28;20045;-64
2022/04/18 05:30:14;;;;;;;29.15;13.85;;;;;;;;;;5039827;28;20396;-65
2022/04/18 05:32:43;;;;;;;38.55;14.43;;;;;;;;;;5040786;28;20045;-65
2022/04/18 05:35:09;;;;;;;32.58;13.52;;;;;;;;;;5047094;28;20063;-65
2022/04/18 05:37:35;;;;;;;51.28;16.73;;;;;;;;;;5041800;28;20464;-65
2022/04/18 05:40:01;;;;;;;92.43;23.35;;;;;;;;;;5036665;28;20110;-64
2022/04/18 05:42:27;;;;;;;70.88;21.10;;;;;;;;;;5017947;28;20049;-65
2022/04/18 05:44:53;;;;;;;50.60;16.60;;;;;;;;;;5035212;28;20101;-65
2022/04/18 05:47:19;;;;;;;70.55;20.77;;;;;;;;;;5050399;28;20064;-64
2022/04/18 05:49:45;;;;;;;38.80;15.00;;;;;;;;;;5046950;28;20374;-65
2022/04/18 05:52:13;;;;;;;58.00;19.25;;;;;;;;;;5040504;28;20067;-65
2022/04/18 05:54:39;;;;;;;36.27;14.10;;;;;;;;;;5057904;28;20102;-65
2022/04/18 05:57:06;;;;;;;44.70;16.63;;;;;;;;;;5043728;28;20484;-65
2022/04/18 05:59:32;;;;;;;44.33;16.90;;;;;;;;;;5049767;28;20204;-65
2022/04/18 06:01:58;;;;;;;46.42;16.20;;;;;;;;;;5051847;28;20049;-64
2022/04/18 06:04:24;;;;;;;37.33;14.40;;;;;;;;;;5051676;28;20051;-65
2022/04/18 06:06:50;;;;;;;22.23;11.35;;;;;;;;;;5054392;28;20042;-65
2022/04/18 06:09:16;;;;;;;41.78;15.75;;;;;;;;;;5052281;28;20071;-66
2022/04/18 06:11:42;;;;;;;32.47;12.73;;;;;;;;;;5057197;28;20079;-66
2022/04/18 06:14:08;;;;;;;30.05;13.32;;;;;;;;;;5040030;28;20056;-65
2022/04/18 06:16:34;;;;;;;31.10;13.45;;;;;;;;;;5031681;28;20053;-64
2022/04/18 06:19:00;;;;;;;22.27;11.82;;;;;;;;;;5052242;28;20037;-64
2022/04/18 06:21:26;;;;;;;27.63;12.93;;;;;;;;;;5029183;28;20049;-64
2022/04/18 06:23:52;;;;;;;21.95;11.13;;;;;;;;;;5048768;28;20094;-65
2022/04/18 06:26:18;;;;;;;23.48;11.50;;;;;;;;;;5044920;28;20049;-65
2022/04/18 06:28:44;;;;;;;15.60;9.68;;;;;;;;;;5051682;28;20136;-63
2022/04/18 06:31:10;;;;;;;36.15;13.65;;;;;;;;;;5034421;28;20087;-65
2022/04/18 06:33:36;;;;;;;19.00;10.02;;;;;;;;;;5034324;28;20345;-65
2022/04/18 06:36:02;;;;;;;24.75;11.80;;;;;;;;;;5053286;28;20056;-67
2022/04/18 06:38:28;;;;;;;35.05;12.35;;;;;;;;;;5049737;28;20040;-65
2022/04/18 06:40:58;;;;;;;22.98;10.95;;;;;;;;;;5055374;28;20526;-64
2022/04/18 06:43:24;;;;;;;23.63;10.25;;;;;;;;;;5041741;28;20041;-65
2022/04/18 06:45:50;;;;;;;16.77;9.73;;;;;;;;;;5051367;28;20405;-64
2022/04/18 06:48:16;;;;;;;20.38;9.90;;;;;;;;;;5054606;28;20053;-65
2022/04/18 06:50:42;;;;;;;17.50;10.00;;;;;;;;;;5046094;28;20047;-65
2022/04/18 06:53:10;;;;;;;23.98;10.73;;;;;;;;;;5037191;28;20048;-65
2022/04/18 06:58:21;;;;;;;22.90;10.13;;;;;;;;;;5046781;28;20131;-65
2022/04/18 07:00:47;;;;;;;16.65;9.60;;;;;;;;;;5039616;28;20560;-64
2022/04/18 07:03:13;;;;;;;17.50;9.70;;;;;;;;;;5034501;28;20100;-67
2022/04/18 07:05:42;;;;;;;14.95;9.85;;;;;;;;;;5035057;28;20124;-65
2022/04/18 07:08:08;;;;;;;41.42;14.38;;;;;;;;;;5048900;28;20473;-65
2022/04/18 07:10:34;;;;;;;24.73;11.30;;;;;;;;;;5047831;28;20049;-65
2022/04/18 07:13:00;;;;;;;17.48;9.65;;;;;;;;;;5053967;28;20128;-65
2022/04/18 07:15:26;;;;;;;18.92;9.93;;;;;;;;;;5023074;28;20080;-65
2022/04/18 07:17:52;;;;;;;17.23;9.55;;;;;;;;;;5034385;28;20068;-65
2022/04/18 07:20:18;;;;;;;21.40;10.80;;;;;;;;;;5048601;28;20048;-64
2022/04/18 07:22:44;;;;;;;19.00;10.18;;;;;;;;;;5055958;28;20045;-65
2022/04/18 07:25:10;;;;;;;15.93;9.30;;;;;;;;;;5030666;28;20052;-66
2022/04/18 07:27:37;;;;;;;21.55;9.55;;;;;;;;;;5032291;28;20057;-65
2022/04/18 07:30:03;;;;;;;20.83;9.40;;;;;;;;;;5030034;28;20056;-65
2022/04/18 07:32:29;;;;;;;15.18;8.73;;;;;;;;;;5047136;28;20056;-65
2022/04/18 07:34:55;;;;;;;17.48;8.27;;;;;;;;;;5043370;28;20431;-65
2022/04/18 07:37:21;;;;;;;17.52;8.70;;;;;;;;;;5047770;28;20044;-66
2022/04/18 07:39:47;;;;;;;21.58;9.30;;;;;;;;;;5050639;28;20064;-66
2022/04/18 07:42:13;;;;;;;20.40;8.73;;;;;;;;;;5033064;28;20072;-67
2022/04/18 07:44:39;;;;;;;17.60;9.43;;;;;;;;;;5052257;28;20037;-66
2022/04/18 07:47:05;;;;;;;17.98;8.70;;;;;;;;;;5060692;28;20049;-65
2022/04/18 07:49:31;;;;;;;40.75;13.75;;;;;;;;;;5031429;28;20069;-64
2022/04/18 07:51:57;;;;;;;21.17;9.65;;;;;;;;;;5049621;28;20048;-64
2022/04/18 07:54:23;;;;;;;17.23;9.57;;;;;;;;;;5051787;28;20484;-65
2022/04/18 07:56:49;;;;;;;28.33;10.23;;;;;;;;;;5042600;28;20076;-65
2022/04/18 07:59:15;;;;;;;19.48;10.32;;;;;;;;;;5059575;28;20045;-65
2022/04/18 08:01:43;;;;;;;14.52;8.90;;;;;;;;;;5060162;28;20052;-64
2022/04/18 08:04:09;;;;;;;26.45;14.15;;;;;;;;;;5044256;28;20060;-65
2022/04/18 08:06:35;;;;;;;14.15;8.63;;;;;;;;;;5046786;28;20510;-65
2022/04/18 08:09:01;;;;;;;12.30;8.48;;;;;;;;;;5051048;28;20099;-67
2022/04/18 08:11:27;;;;;;;11.52;7.10;;;;;;;;;;5039621;28;20476;-66
2022/04/18 08:13:53;;;;;;;27.08;9.50;;;;;;;;;;5040152;28;20045;-66
2022/04/18 08:16:20;;;;;;;26.77;10.32;;;;;;;;;;5038815;28;20049;-65
2022/04/18 08:18:46;;;;;;;14.88;7.72;;;;;;;;;;5019294;28;20440;-66
2022/04/18 08:21:14;;;;;;;16.40;7.50;;;;;;;;;;5041225;28;20495;-65
2022/04/18 08:23:40;;;;;;;11.30;6.93;;;;;;;;;;5048789;28;20048;-65
2022/04/18 08:26:06;;;;;;;10.57;6.68;;;;;;;;;;5042987;28;20045;-65
2022/04/18 08:28:33;;;;;;;11.57;7.65;;;;;;;;;;5036044;28;20042;-67
2022/04/18 08:31:00;;;;;;;11.18;7.13;;;;;;;;;;5033336;28;20052;-66
2022/04/18 08:33:26;;;;;;;11.10;7.28;;;;;;;;;;5033266;28;20054;-65
2022/04/18 08:35:52;;;;;;;10.48;7.40;;;;;;;;;;5035119;28;20056;-66
2022/04/18 08:38:18;;;;;;;17.58;8.88;;;;;;;;;;5030846;28;20045;-66
2022/04/18 08:40:45;;;;;;;12.15;7.50;;;;;;;;;;5015666;28;20052;-65
2022/04/18 08:43:11;;;;;;;9.30;7.00;;;;;;;;;;5036689;28;20590;-66
2022/04/18 08:45:37;;;;;;;13.10;7.47;;;;;;;;;;5035055;28;20069;-66
2022/04/18 08:53:35;;;;;;;14.95;8.25;;;;;;;;;;5032830;28;20053;-65
2022/04/18 08:56:01;;;;;;;13.93;7.90;;;;;;;;;;5037430;28;20045;-65
2022/04/18 08:58:28;;;;;;;9.88;7.13;;;;;;;;;;5038937;28;20512;-66
2022/04/18 09:00:55;;;;;;;13.73;7.78;;;;;;;;;;5015624;28;20052;-66
2022/04/18 09:03:21;;;;;;;13.82;7.40;;;;;;;;;;5035666;28;20052;-65
2022/04/18 09:05:47;;;;;;;12.63;7.70;;;;;;;;;;5042583;28;20045;-66
2022/04/18 09:08:13;;;;;;;13.73;7.57;;;;;;;;;;5046881;28;20049;-65
2022/04/18 09:10:40;;;;;;;8.93;6.07;;;;;;;;;;5048149;28;20045;-66
2022/04/18 09:13:08;;;;;;;9.15;6.25;;;;;;;;;;5031311;28;20048;-66
2022/04/18 09:15:38;;;;;;;9.07;6.20;;;;;;;;;;5052187;28;20059;-66
2022/04/18 09:18:11;;;;;;;19.05;8.15;;;;;;;;;;5043409;28;20132;-66
2022/04/18 09:20:51;;;;;;;22.48;9.02;;;;;;;;;;5044150;28;20480;-66
2022/04/18 09:23:20;;;;;;;15.23;8.15;;;;;;;;;;5046934;28;20069;-67
2022/04/18 09:25:47;;;;;;;25.95;11.90;;;;;;;;;;5048559;28;20041;-66
2022/04/18 09:28:14;;;;;;;12.52;7.88;;;;;;;;;;5045996;28;20081;-66
2022/04/18 09:30:42;;;;;;;16.85;8.68;;;;;;;;;;5030173;28;20045;-65
2022/04/18 09:33:09;;;;;;;12.80;7.38;;;;;;;;;;5049209;28;20064;-65
2022/04/18 09:35:35;;;;;;;12.18;7.65;;;;;;;;;;5047960;28;20064;-66
2022/04/18 09:38:03;;;;;;;15.77;8.05;;;;;;;;;;5047556;28;20041;-67
2022/04/18 09:40:31;;;;;;;11.73;7.00;;;;;;;;;;5041225;28;20087;-64
2022/04/18 09:42:57;;;;;;;;;;;;;;;;;;5049315;28;20047;-65
2022/04/18 09:45:24;;;;;;;12.05;7.15;;;;;;;;;;5050587;28;19996;-65
2022/04/18 09:47:57;;;;;;;26.63;9.95;;;;;;;;;;5038377;28;20056;-64
2022/04/18 09:53:16;;;;;;;8.65;6.30;;;;;;;;;;5036193;28;20050;-65
2022/04/18 09:55:45;;;;;;;9.82;6.50;;;;;;;;;;5048072;28;20049;-65
2022/04/18 09:58:12;;;;;;;14.40;6.88;;;;;;;;;;5037610;28;20132;-65
2022/04/18 10:00:38;;;;;;;8.88;6.22;;;;;;;;;;5044345;28;20036;-65
2022/04/18 10:03:04;;;;;;;12.25;6.72;;;;;;;;;;5034099;28;20048;-66
2022/04/18 10:05:31;;;;;;;7.93;5.78;;;;;;;;;;5045236;28;20415;-65
2022/04/18 10:08:03;;;;;;;10.55;6.85;;;;;;;;;;5038277;28;20038;-65
2022/04/18 10:10:29;;;;;;;12.02;6.55;;;;;;;;;;5055477;28;20049;-65
2022/04/18 10:12:55;;;;;;;8.60;6.15;;;;;;;;;;5054694;28;20049;-65
2022/04/18 10:15:21;;;;;;;12.88;6.72;;;;;;;;;;5044798;28;20529;-65
2022/04/18 10:17:47;;;;;;;7.47;5.43;;;;;;;;;;5052600;28;20127;-65
2022/04/18 10:20:32;;;;;;;6.95;5.75;;;;;;;;;;5036639;28;20481;-64
2022/04/18 10:23:07;;;;;;;18.98;7.93;;;;;;;;;;5036278;28;20056;-64
2022/04/18 10:25:33;;;;;;;9.23;6.28;;;;;;;;;;5031401;28;20042;-65
2022/04/18 10:28:09;;;;;;;8.85;5.95;;;;;;;;;;5040502;28;20111;-65
2022/04/18 10:30:38;;;;;;;15.27;6.70;;;;;;;;;;5035051;28;20481;-65
2022/04/18 10:33:04;;;;;;;6.63;5.28;;;;;;;;;;5034765;28;20060;-66
2022/04/18 10:35:31;;;;;;;11.27;5.85;;;;;;;;;;5028343;28;20124;-65
2022/04/18 10:38:02;;;;;;;12.85;5.82;;;;;;;;;;5053898;28;20124;-64
2022/04/18 10:40:38;;;;;;;8.32;4.88;;;;;;;;;;5054041;28;20033;-66
2022/04/18 10:43:04;;;;;;;9.35;4.70;;;;;;;;;;5040006;28;20392;-66
2022/04/18 10:45:30;;;;;;;5.60;4.85;;;;;;;;;;5049538;28;20041;-65
2022/04/18 10:47:56;;;;;;;12.30;5.93;;;;;;;;;;5049838;28;20033;-67
2022/04/18 10:50:25;;;;;;;13.77;6.30;;;;;;;;;;5045512;28;20045;-67
2022/04/18 10:53:10;;;;;;;21.50;7.18;;;;;;;;;;5053980;28;20048;-67
2022/04/18 10:55:37;;;;;;;24.35;7.72;;;;;;;;;;5032989;28;20048;-67
2022/04/18 10:58:13;;;;;;;9.05;4.90;;;;;;;;;;5034247;28;20049;-68
2022/04/18 11:00:50;;;;;;;7.00;5.00;;;;;;;;;;5017362;28;20041;-66
2022/04/18 11:03:35;;;;;;;14.50;6.18;;;;;;;;;;5052354;28;20056;-67
2022/04/18 11:06:01;;;;;;;9.23;5.47;;;;;;;;;;5044961;28;20041;-67
2022/04/18 11:08:29;;;;;;;11.20;5.68;;;;;;;;;;5029677;28;20047;-67
2022/04/18 11:11:18;;;;;;;5.75;5.05;;;;;;;;;;5048694;28;20044;-67
2022/04/18 11:13:47;;;;;;;5.82;4.68;;;;;;;;;;5033560;28;20451;-67
2022/04/18 11:16:22;;;;;;;29.95;9.63;;;;;;;;;;5053332;28;20129;-68
2022/04/18 11:19:07;;;;;;;7.45;5.15;;;;;;;;;;5050678;28;20045;-66
2022/04/18 11:21:52;;;;;;;7.10;4.80;;;;;;;;;;5045921;28;20133;-68
2022/04/18 11:24:32;;;;;;;5.97;4.65;;;;;;;;;;5044504;28;20045;-66
2022/04/18 11:26:58;;;;;;;7.30;4.68;;;;;;;;;;5047134;28;20045;-68
2022/04/18 11:29:24;;;;;;;10.35;5.90;;;;;;;;;;5013906;28;20129;-66
2022/04/18 11:31:50;;;;;;;12.98;5.68;;;;;;;;;;5020848;28;20112;-67
2022/04/18 11:34:18;;;;;;;12.25;5.60;;;;;;;;;;5013712;28;20050;-67
2022/04/18 11:36:44;;;;;;;12.05;5.57;;;;;;;;;;5017970;28;20377;-67
2022/04/18 11:39:10;;;;;;;7.22;5.40;;;;;;;;;;5033682;28;20388;-68
2022/04/18 11:41:37;;;;;;;8.07;5.43;;;;;;;;;;5029700;28;20045;-68
2022/04/18 11:44:03;;;;;;;12.35;5.82;;;;;;;;;;5031031;28;20573;-68
2022/04/18 11:46:29;;;;;;;12.80;5.43;;;;;;;;;;5027473;28;20084;-65
2022/04/18 11:48:55;;;;;;;6.43;4.82;;;;;;;;;;5013230;28;20052;-65
2022/04/18 11:51:38;;;;;;;7.90;4.63;;;;;;;;;;5025749;28;20053;-68
2022/04/18 11:54:04;;;;;;;8.98;5.35;;;;;;;;;;5024778;28;20063;-66
2022/04/18 11:56:30;;;;;;;9.02;5.03;;;;;;;;;;5033843;28;20468;-66
2022/04/18 11:58:58;;;;;;;6.30;4.68;;;;;;;;;;5025512;28;20180;-67
2022/04/18 12:06:53;;;;;;;5.47;4.57;;;;;;;;;;5031842;28;20057;-67
2022/04/18 12:09:21;;;;;;;6.72;4.68;;;;;;;;;;5033736;28;20041;-68
2022/04/18 12:11:47;;;;;;;6.22;4.78;;;;;;;;;;5028399;28;20689;-67
2022/04/18 12:14:14;;;;;;;13.45;5.00;;;;;;;;;;5025217;28;20109;-67
2022/04/18 12:16:41;;;;;;;8.02;5.60;;;;;;;;;;5028516;28;20088;-67
2022/04/18 12:19:11;;;;;;;6.75;4.95;;;;;;;;;;5031776;28;20045;-67
2022/04/18 12:21:37;;;;;;;8.68;4.95;;;;;;;;;;5013483;28;20057;-67
2022/04/18 12:24:03;;;;;;;7.13;4.70;;;;;;;;;;5025860;28;20100;-66
2022/04/18 12:26:30;;;;;;;5.05;4.55;;;;;;;;;;5012511;28;20038;-68
2022/04/18 12:29:00;;;;;;;5.88;4.55;;;;;;;;;;5011963;28;20058;-67
2022/04/18 12:31:26;;;;;;;4.95;4.40;;;;;;;;;;5019744;28;20485;-68
2022/04/18 12:33:52;;;;;;;7.18;4.60;;;;;;;;;;5032170;28;20599;-67
2022/04/18 12:36:25;;;;;;;19.52;6.05;;;;;;;;;;5030963;28;20049;-67
2022/04/18 12:38:51;;;;;;;11.57;5.40;;;;;;;;;;5029568;28;20476;-68
2022/04/18 12:41:26;;;;;;;7.60;5.10;;;;;;;;;;5032399;28;20487;-68
2022/04/18 12:43:52;;;;;;;6.78;4.72;;;;;;;;;;5030021;28;20132;-68
2022/04/18 12:46:23;;;;;;;6.72;4.82;;;;;;;;;;5018247;28;20116;-67
2022/04/18 12:48:51;;;;;;;9.05;5.18;;;;;;;;;;5016187;28;20057;-67
2022/04/18 12:51:18;;;;;;;5.95;4.72;;;;;;;;;;5027879;28;20054;-67
2022/04/18 12:53:48;;;;;;;9.00;5.10;;;;;;;;;;5017590;28;20048;-68
2022/04/18 12:56:20;;;;;;;6.97;4.72;;;;;;;;;;5016806;28;20087;-68
2022/04/18 12:58:46;;;;;;;5.65;5.00;;;;;;;;;;5024985;28;20124;-68
2022/04/18 13:01:21;;;;;;;9.10;4.40;;;;;;;;;;5014606;28;20073;-68
2022/04/18 13:03:48;;;;;;;6.70;4.43;;;;;;;;;;5033705;28;20092;-67
2022/04/18 13:06:14;;;;;;;5.70;4.60;;;;;;;;;;5033323;28;20046;-67
2022/04/18 13:08:41;;;;;;;5.00;4.50;;;;;;;;;;5030505;28;20389;-68
2022/04/18 13:11:07;;;;;;;5.60;5.00;;;;;;;;;;5036067;28;20060;-68
2022/04/18 13:13:33;;;;;;;5.63;4.72;;;;;;;;;;5028159;28;20073;-68
2022/04/18 13:16:20;;;;;;;5.30;4.28;;;;;;;;;;5033565;28;20107;-68
2022/04/18 13:18:46;;;;;;;8.88;4.97;;;;;;;;;;5017535;28;20073;-68
2022/04/18 13:21:11;;;;;;;5.40;4.05;;;;;;;;;;5029327;28;20074;-68
2022/04/18 13:23:37;;;;;;;16.48;6.30;;;;;;;;;;5020800;28;20042;-69
2022/04/18 13:26:03;;;;;;;6.95;4.68;;;;;;;;;;5029204;28;20381;-68
2022/04/18 13:28:29;;;;;;;5.03;4.07;;;;;;;;;;5032072;28;20058;-68
2022/04/18 13:30:55;;;;;;;6.75;4.32;;;;;;;;;;5051559;28;20697;-65
2022/04/18 13:33:21;;;;;;;4.45;3.97;;;;;;;;;;5051982;28;20044;-66
2022/04/18 13:38:33;;;;;;;8.65;5.07;;;;;;;;;;5029571;28;20053;-67
2022/04/18 13:40:59;;;;;;;5.60;4.03;;;;;;;;;;5048292;28;20045;-68
2022/04/18 13:43:25;;;;;;;5.82;4.10;;;;;;;;;;5051072;28;20096;-66
2022/04/18 13:45:51;;;;;;;5.45;4.43;;;;;;;;;;5050785;28;20045;-67
2022/04/18 13:48:18;;;;;;;4.80;4.22;;;;;;;;;;5044812;28;20045;-67
2022/04/18 13:50:45;;;;;;;5.18;4.20;;;;;;;;;;5031003;28;20065;-65
2022/04/18 13:53:11;;;;;;;5.20;4.60;;;;;;;;;;5047254;28;20048;-67
2022/04/18 13:55:37;;;;;;;5.43;4.35;;;;;;;;;;5047129;28;20037;-67
2022/04/18 13:58:03;;;;;;;5.18;4.10;;;;;;;;;;5030224;28;20412;-65
2022/04/18 14:00:29;;;;;;;5.38;4.00;;;;;;;;;;5051991;28;20487;-66
2022/04/18 14:02:56;;;;;;;5.68;3.97;;;;;;;;;;5026831;28;20033;-65
2022/04/18 14:05:22;;;;;;;11.25;5.38;;;;;;;;;;5043458;28;20115;-68
2022/04/18 14:07:48;;;;;;;6.03;3.63;;;;;;;;;;5044203;28;20053;-68
2022/04/18 14:10:14;;;;;;;26.13;9.15;;;;;;;;;;5055868;28;20040;-66
2022/04/18 14:12:40;;;;;;;56.75;18.40;;;;;;;;;;5053964;28;20049;-68
2022/04/18 14:20:38;;;;;;;14.52;6.10;;;;;;;;;;5055721;28;20146;-67
2022/04/18 14:23:04;;;;;;;14.40;5.85;;;;;;;;;;5036944;28;20048;-67
2022/04/18 14:25:31;;;;;;;18.67;7.85;;;;;;;;;;5053322;28;20064;-74
2022/04/18 14:27:57;;;;;;;4.68;4.07;;;;;;;;;;5045661;28;20088;-68
2022/04/18 14:30:23;;;;;;;8.90;5.45;;;;;;;;;;5028311;28;20425;-68
2022/04/18 14:32:49;;;;;;;6.35;4.30;;;;;;;;;;5043920;28;20057;-67
2022/04/18 14:35:15;;;;;;;10.95;6.00;;;;;;;;;;5054349;28;20107;-66
2022/04/18 14:37:42;;;;;;;4.82;4.32;;;;;;;;;;5040242;28;20497;-66
2022/04/18 14:40:09;;;;;;;7.70;4.43;;;;;;;;;;5015403;28;20049;-67
2022/04/18 14:42:35;;;;;;;5.10;4.07;;;;;;;;;;5035459;28;20369;-67
2022/04/18 14:45:02;;;;;;;15.38;12.95;;;;;;;;;;5050943;28;20049;-68
2022/04/18 14:47:28;;;;;;;7.95;7.15;;;;;;;;;;5033077;28;20054;-70
2022/04/18 14:49:54;;;;;;;5.30;4.55;;;;;;;;;;5040616;28;20049;-69
2022/04/18 14:52:22;;;;;;;5.25;4.38;;;;;;;;;;5054743;28;20504;-68
2022/04/18 14:54:49;;;;;;;6.05;4.25;;;;;;;;;;5033102;28;20057;-67
2022/04/18 14:57:15;;;;;;;10.20;5.07;;;;;;;;;;5021051;28;20481;-67
2022/04/18 14:59:41;;;;;;;5.43;4.28;;;;;;;;;;5044817;28;20550;-67